Pacific Journey — 3FFE — position and weather

sailwx.info

Track history (hours):
 
Tides and Currents Weather Stations Pressure Air Temp Water Temp Dewpoint Dewpoint Depression Visibility Wind Speed Wind Dir Waves Ship Positions

Pacific Journey

Last reported at 2017-Jul-11 12:34 UTC. Time now 2017-Jul-24 08:37 UTC.
Position N 27°41' W 013°41'.
Warning: this ship's position is 12 days out of date.

Length 180 m; draft 10.5 m.

Type: Cargo ship. MMSI: 371467000.

Date/timePositionNaut miles runAvg speedWind from/ knotsBaromVisibWave heightAir tempDewpointWater temp
2017-Jul-11 12:34N 27°41' W 013°41'112.5
2017-Jul-11 12:28N 27°42' W 013°41'912.3
2017-Jul-11 11:44N 27°50' W 013°35'912.2
2017-Jul-11 10:58N 27°57' W 013°28'912.5
2017-Jul-11 10:16N 28°04' W 013°22'412.7
2017-Jul-11 09:59N 28°07' W 013°20'612.4
2017-Jul-11 09:28N 28°12' W 013°16'912.4
2017-Jul-11 08:44N 28°19' W 013°10'412.5
2017-Jul-11 08:25N 28°22' W 013°07'612.3
2017-Jul-11 07:57N 28°27' W 013°03'612.3
2017-Jul-11 07:30N 28°31' W 012°59'812.5
2017-Jul-11 06:53N 28°38' W 012°55'812.4
2017-Jul-11 06:12N 28°45' W 012°49'1612.1
2017-Jul-11 04:52N 28°58' W 012°38'  
2017-Jul-04 05:00N 33°10' W 008°43'0 0.0
2017-Jul-04 03:03N 33°10' W 008°43'0 0.0
2017-Jul-04 02:03N 33°10' W 008°43'0 0.0
2017-Jul-04 01:36N 33°10' W 008°43'0 0.0
2017-Jul-04 01:21N 33°10' W 008°43'0 0.0
2017-Jul-04 00:57N 33°09' W 008°43'0 0.1
2017-Jul-04 00:27N 33°09' W 008°43'0 0.0
2017-Jul-03 23:57N 33°09' W 008°43'0 0.1
2017-Jul-03 23:27N 33°09' W 008°43'0 0.0
2017-Jul-03 22:27N 33°09' W 008°43'0 0.0
2017-Jul-03 21:57N 33°09' W 008°43'0 0.0
2017-Jul-03 21:24N 33°09' W 008°43'0 0.0
2017-Jul-03 04:18N 33°09' W 008°43'0 0.0
2017-Jul-03 03:57N 33°09' W 008°43'0 0.0
2017-Jul-03 03:30N 33°09' W 008°43'0 0.0
2017-Jul-03 01:36N 33°09' W 008°43'0 0.1
2017-Jul-03 01:30N 33°09' W 008°43'0 0.0
2017-Jul-03 00:18N 33°09' W 008°43'0 0.0
2017-Jul-02 18:09N 33°09' W 008°43'0 0.3
2017-Jul-02 17:58N 33°09' W 008°43'48 6.1
2017-Jul-02 10:11N 33°55' W 008°60'1 4.7
2017-Jul-02 10:00N 33°55' W 009°00'2 5.0
2017-Jul-02 09:30N 33°58' W 009°01'3 6.7
2017-Jul-02 09:00N 34°01' W 009°03'4 8.8
2017-Jul-02 08:30N 34°05' W 009°05'611.8
2017-Jul-02 08:00N 34°10' W 009°08'612.5
2017-Jul-02 07:30N 34°16' W 009°12'4 7.9
2017-Jul-02 07:00N 34°19' W 009°15'2 4.2
2017-Jul-02 06:25N 34°17' W 009°15'8 3.9
2017-Jul-02 04:13N 34°08' W 009°17'1 3.7
2017-Jul-02 03:57N 34°07' W 009°17'2 3.5
2017-Jul-02 03:30N 34°06' W 009°17'2 3.7
2017-Jul-02 03:00N 34°04' W 009°18'2 3.5
2017-Jul-02 02:30N 34°02' W 009°18'2 3.6
2017-Jul-02 02:00N 34°00' W 009°18'2 3.5
2017-Jul-02 01:29N 33°59' W 009°18'2 3.3
2017-Jul-02 00:59N 33°57' W 009°19'7 2.9
2017-Jul-01 22:40N 33°50' W 009°21'1 2.8
2017-Jul-01 22:29N 33°50' W 009°22'6 2.8
2017-Jul-01 20:22N 33°45' W 009°26'1 3.1
2017-Jul-01 20:00N 33°45' W 009°27'1 2.9
2017-Jul-01 19:30N 33°44' W 009°28'9 2.7
2017-Jul-01 16:15N 33°36' W 009°34'1 3.1
2017-Jul-01 16:00N 33°36' W 009°34'  
Track history (hours):
 
Tides and Currents Weather Stations Pressure Air Temp Water Temp Dewpoint Dewpoint Depression Visibility Wind Speed Wind Dir Waves Ship Positions

Pacific Journey

Last reported at 2017-Jul-11 12:34 UTC. Time now 2017-Jul-24 08:37 UTC.
Position N 27°41' W 013°41'.
Warning: this ship's position is 12 days out of date.

Length 180 m; draft 10.5 m.

Type: Cargo ship. MMSI: 371467000.

Date/timePositionNaut miles runAvg speedWind from/ knotsBaromVisibWave heightAir tempDewpointWater temp
2017-Jul-11 12:34N 27°41' W 013°41'112.5
2017-Jul-11 12:28N 27°42' W 013°41'912.3
2017-Jul-11 11:44N 27°50' W 013°35'912.2
2017-Jul-11 10:58N 27°57' W 013°28'912.5
2017-Jul-11 10:16N 28°04' W 013°22'412.7
2017-Jul-11 09:59N 28°07' W 013°20'612.4
2017-Jul-11 09:28N 28°12' W 013°16'912.4
2017-Jul-11 08:44N 28°19' W 013°10'412.5
2017-Jul-11 08:25N 28°22' W 013°07'612.3
2017-Jul-11 07:57N 28°27' W 013°03'612.3
2017-Jul-11 07:30N 28°31' W 012°59'812.5
2017-Jul-11 06:53N 28°38' W 012°55'812.4
2017-Jul-11 06:12N 28°45' W 012°49'1612.1
2017-Jul-11 04:52N 28°58' W 012°38'  
2017-Jul-04 05:00N 33°10' W 008°43'0 0.0
2017-Jul-04 03:03N 33°10' W 008°43'0 0.0
2017-Jul-04 02:03N 33°10' W 008°43'0 0.0
2017-Jul-04 01:36N 33°10' W 008°43'0 0.0
2017-Jul-04 01:21N 33°10' W 008°43'0 0.0
2017-Jul-04 00:57N 33°09' W 008°43'0 0.1
2017-Jul-04 00:27N 33°09' W 008°43'0 0.0
2017-Jul-03 23:57N 33°09' W 008°43'0 0.1
2017-Jul-03 23:27N 33°09' W 008°43'0 0.0
2017-Jul-03 22:27N 33°09' W 008°43'0 0.0
2017-Jul-03 21:57N 33°09' W 008°43'0 0.0
2017-Jul-03 21:24N 33°09' W 008°43'0 0.0
2017-Jul-03 04:18N 33°09' W 008°43'0 0.0
2017-Jul-03 03:57N 33°09' W 008°43'0 0.0
2017-Jul-03 03:30N 33°09' W 008°43'0 0.0
2017-Jul-03 01:36N 33°09' W 008°43'0 0.1
2017-Jul-03 01:30N 33°09' W 008°43'0 0.0
2017-Jul-03 00:18N 33°09' W 008°43'0 0.0
2017-Jul-02 18:09N 33°09' W 008°43'0 0.3
2017-Jul-02 17:58N 33°09' W 008°43'48 6.1
2017-Jul-02 10:11N 33°55' W 008°60'1 4.7
2017-Jul-02 10:00N 33°55' W 009°00'2 5.0
2017-Jul-02 09:30N 33°58' W 009°01'3 6.7
2017-Jul-02 09:00N 34°01' W 009°03'4 8.8
2017-Jul-02 08:30N 34°05' W 009°05'611.8
2017-Jul-02 08:00N 34°10' W 009°08'612.5
2017-Jul-02 07:30N 34°16' W 009°12'4 7.9
2017-Jul-02 07:00N 34°19' W 009°15'2 4.2
2017-Jul-02 06:25N 34°17' W 009°15'8 3.9
2017-Jul-02 04:13N 34°08' W 009°17'1 3.7
2017-Jul-02 03:57N 34°07' W 009°17'2 3.5
2017-Jul-02 03:30N 34°06' W 009°17'2 3.7
2017-Jul-02 03:00N 34°04' W 009°18'2 3.5
2017-Jul-02 02:30N 34°02' W 009°18'2 3.6
2017-Jul-02 02:00N 34°00' W 009°18'2 3.5
2017-Jul-02 01:29N 33°59' W 009°18'2 3.3
2017-Jul-02 00:59N 33°57' W 009°19'7 2.9
2017-Jul-01 22:40N 33°50' W 009°21'1 2.8
2017-Jul-01 22:29N 33°50' W 009°22'6 2.8
2017-Jul-01 20:22N 33°45' W 009°26'1 3.1
2017-Jul-01 20:00N 33°45' W 009°27'1 2.9
2017-Jul-01 19:30N 33°44' W 009°28'9 2.7
2017-Jul-01 16:15N 33°36' W 009°34'1 3.1
2017-Jul-01 16:00N 33°36' W 009°34'  

Dump ship's entire track history